Brownsville, TX (78520)

6:25 PM CST on December 04, 2016 (GMT -0600)
West Brownsville | | Change Station

Elev 35 ft 25.92 °N, 97.52 °W | Updated 11 minutes ago

Overcast
Overcast
56.6 °F
Feels Like 56.6 °F
N
3.0
Wind Variable Wind from WNW
Gusts 9.0 mph

Today
High -- | Low -- °F
--% Chance of Precip.
Yesterday
High -- | Low -- °F
Precip. -- in
Pressure 29.86 in
Visibility 10.0 miles
Clouds Mostly Cloudy 500 ft
Overcast 1200 ft
Dew Point 56 °F
Humidity 96%
Rainfall 0.05 in
Snow Depth Not available.
7:02 AM 5:38 PM
Waxing Crescent, 26% visible
SPECI KBRO 050006Z 30009KT 10SM BKN005 OVC012 14/14 A2986 RMK AO2 RAE00 P0000 T01440139 $
Pressure 29.86 in
Visibility 10.0 miles
Clouds Mostly Cloudy 500 ft
Overcast 1200 ft
Dew Point 56 °F
Humidity 96%
Rainfall 0.05 in
Snow Depth Not available.
7:02 AM 5:38 PM
Waxing Crescent, 26% visible
SPECI KBRO 050006Z 30009KT 10SM BKN005 OVC012 14/14 A2986 RMK AO2 RAE00 P0000 T01440139 $

10-Day Weather Forecast

Almanac

Astronomy

Dec. 04, 2016 Rise Set
Actual Time
Civil Twilight
Nautical Twilight
Astronomical Twilight
Moon
Length of Visible Light
Length of Day
Tomorrow will be .
, % of the Moon is Illuminated

Today's Extremes

State Highs State Lows

Community

WunderPhotos

Upload Photos

1,955,724 photos uploaded!

WunderBlog® & News

Nearby

Air Quality

  Air Quality AQ Index Pollutant
Not available.

Snow Depth

Station Depth Elevation

Earthquake Activity

City Distance Mag. Time & Date
Minimum magnitude displayed is 2.5.

Coastal Water Temperatures

Place Temperature

Stations

Nearby Weather Stations

Station Location Temp. Windchill Dew Point Humidity Wind Precip. Elev Updated Type
                   

Watches & Warnings

There are currently no watches in effect.